tititudorancea.com
Station Historical Data
Daily Summary for August 9, 2018 Units:  Metric    English   Both
« Previous Day
Next Day »
Daily Weekly Monthly Yearly Custom
  High: Low: Average:
Temperature: -17.8 °C 2.7 °C 8.3 °C
Dew Point: -17.8 °C 1.3 °C 4.7 °C
Humidity: Humidity % 66 % 78 %
Wind Speed: 0 km/h 0 km/h 17.2 km/h
Wind Gust: 0 km/h - -
Wind:- - South
Pressure: 0 hPa 1013.8 hPa -
Precipitation: 0 mm    
Historical Graphs
 
 
Ararat weather Find more about Weather in Ararat, AU


 



 


Tabular Data for August 9, 2018
Time Temperature Dew Point Pressure Wind Wind Speed Wind Gust Humidity Rainfall Rate (Hourly)
-17.8 °C -17.8 °C 0 hPa Calm     Humidity % 0 mm
00:04 6.3 °C 3.7 °C 1017.8 hPa WSW 5.6 km/h 3.1 km/h 83 % 0 mm
00:09 6.3 °C 3.6 °C 1017.8 hPa WSW 8 km/h 6.6 km/h 83 % 0 mm
00:14 6.4 °C 3.6 °C 1017.8 hPa Calm     82 % 0 mm
00:19 6.4 °C 3.6 °C 1017.8 hPa North 5.6 km/h 2.9 km/h 82 % 0 mm
00:24 6.3 °C 3.5 °C 1017.8 hPa WSW 5.6 km/h 3.5 km/h 82 % 0 mm
00:29 6.2 °C 3.4 °C 1017.8 hPa WSW 3.7 km/h 2.3 km/h 82 % 0 mm
00:34 6.2 °C 3.2 °C 1017.8 hPa WSW 3.7 km/h 2.6 km/h 81 % 0 mm
00:39 6 °C 3 °C 1017.8 hPa WSW 3.7 km/h   81 % 0 mm
00:44 5.9 °C 2.9 °C 1017.8 hPa WSW 1.9 km/h   81 % 0 mm
00:49 5.7 °C 2.7 °C 1017.8 hPa Calm     81 % 0 mm
00:54 5.5 °C 2.7 °C 1017.8 hPa WSW 5.6 km/h 4.8 km/h 82 % 0 mm
00:59 5.3 °C 2.6 °C 1017.8 hPa WSW 3.7 km/h 1.8 km/h 83 % 0 mm
01:04 5.1 °C 2.4 °C 1017.8 hPa WSW 3.7 km/h 1.6 km/h 83 % 0 mm
01:09 4.9 °C 2.4 °C 1017.8 hPa North 6.4 km/h 5.6 km/h 84 % 0 mm
01:14 4.7 °C 2.4 °C 1017.8 hPa WSW 5.6 km/h 3.2 km/h 85 % 0 mm
01:19 4.7 °C 2.3 °C 1017.8 hPa North 6.4 km/h 2.4 km/h 85 % 0 mm
01:24 4.6 °C 2.3 °C 1017.8 hPa WSW 5.6 km/h 2.6 km/h 85 % 0 mm
01:29 4.6 °C 2.3 °C 1017.8 hPa WSW 3.7 km/h 2.1 km/h 85 % 0 mm
01:34 4.3 °C 2.1 °C 1018.2 hPa WSW 5.6 km/h 3.5 km/h 85 % 0 mm
01:39 4.3 °C 2.3 °C 1018.2 hPa WSW 5.6 km/h 4.3 km/h 87 % 0 mm
01:44 4.2 °C 2.1 °C 1018.2 hPa WSW 3.7 km/h 1.9 km/h 86 % 0 mm
01:49 4 °C 1.9 °C 1018.2 hPa Calm     86 % 0 mm
01:54 3.9 °C 1.9 °C 1018.2 hPa Calm     87 % 0 mm
01:59 3.9 °C 1.9 °C 1018.2 hPa Calm     87 % 0 mm
02:04 3.8 °C 1.8 °C 1018.2 hPa Calm     87 % 0 mm
02:09 3.6 °C 1.6 °C 1018.2 hPa Calm     87 % 0 mm
02:14 3.4 °C 1.7 °C 1018.2 hPa Calm     88 % 0 mm
02:19 3.2 °C 1.4 °C 1018.2 hPa WSW 1.9 km/h   88 % 0 mm
02:24 3.2 °C 1.4 °C 1018.2 hPa Calm     88 % 0 mm
02:29 3.1 °C 1.3 °C 1018.2 hPa WSW 1.6 km/h 0.5 km/h 88 % 0 mm
02:34 3.1 °C 1.4 °C 1018.2 hPa Calm     89 % 0 mm
02:39 3 °C 1.4 °C 1018.2 hPa Calm     89 % 0 mm
02:44 2.9 °C 1.3 °C 1018.2 hPa North 3.7 km/h 0.8 km/h 89 % 0 mm
02:49 2.9 °C 1.4 °C 1018.2 hPa Calm     90 % 0 mm
02:54 3 °C 1.7 °C 1017.8 hPa North 3.7 km/h 2.6 km/h 91 % 0 mm
02:59 3.1 °C 1.6 °C 1017.8 hPa WSW 5.6 km/h 2.6 km/h 90 % 0 mm
03:04 2.9 °C 1.4 °C 1018.2 hPa WSW 3.7 km/h 1.6 km/h 90 % 0 mm
03:09 2.8 °C 1.3 °C 1018.5 hPa WSW 5.6 km/h 4.3 km/h 90 % 0 mm
03:14 2.7 °C 1.4 °C 1018.5 hPa WSW 3.7 km/h 1.6 km/h 91 % 0 mm
03:19 2.8 °C 1.4 °C 1018.2 hPa Calm     91 % 0 mm
03:24 2.9 °C 1.6 °C 1018.5 hPa Calm     91 % 0 mm
03:29 3 °C 1.8 °C 1018.2 hPa North 1.9 km/h   92 % 0 mm
03:34 3.1 °C 1.9 °C 1018.2 hPa Calm     92 % 0 mm
03:39 3.2 °C 2 °C 1018.2 hPa Calm     92 % 0 mm
03:44 3.2 °C 1.9 °C 1018.2 hPa Calm     91 % 0 mm
03:49 3.3 °C 1.9 °C 1018.2 hPa Calm     91 % 0 mm
03:54 3.2 °C 1.9 °C 1018.5 hPa Calm     91 % 0 mm
03:59 3.2 °C 1.9 °C 1018.2 hPa WSW 3.7 km/h 2.6 km/h 91 % 0 mm
04:04 3.2 °C 1.9 °C 1018.2 hPa Calm     91 % 0 mm
04:09 3.2 °C 1.8 °C 1018.2 hPa Calm     91 % 0 mm
04:14 3.2 °C 1.8 °C 1018.2 hPa WSW 3.2 km/h 2.4 km/h 91 % 0 mm
04:19 3.2 °C 2 °C 1018.2 hPa WSW 3.7 km/h 0.3 km/h 92 % 0 mm
04:24 3.2 °C 2.1 °C 1018.5 hPa WSW 5.6 km/h 2.4 km/h 92 % 0 mm
04:29 3.3 °C 2.2 °C 1018.5 hPa WSW 5.6 km/h 2.9 km/h 92 % 0 mm
04:34 3.4 °C 2.2 °C 1018.5 hPa Calm     92 % 0 mm
04:39 3.6 °C 2.6 °C 1018.5 hPa North 3.2 km/h 1 km/h 93 % 0 mm
04:44 3.7 °C 2.6 °C 1018.5 hPa WSW 1.9 km/h 0.3 km/h 92 % 0 mm
04:49 3.8 °C 2.6 °C 1018.5 hPa WSW 1.9 km/h 0.3 km/h 92 % 0 mm
04:54 3.8 °C 2.7 °C 1018.5 hPa WSW 5.6 km/h 1.9 km/h 92 % 0 mm
04:59 3.9 °C 2.7 °C 1018.5 hPa WSW 5.6 km/h 2.1 km/h 92 % 0 mm
05:04 4 °C 2.8 °C 1018.5 hPa WSW 5.6 km/h 3.9 km/h 92 % 0 mm
05:09 4.2 °C 3 °C 1018.5 hPa WSW 6.4 km/h 5.1 km/h 92 % 0 mm
05:14 4.3 °C 3.1 °C 1018.5 hPa WSW 5.6 km/h 4 km/h 92 % 0 mm
05:19 4.4 °C 3.3 °C 1018.5 hPa WSW 8 km/h 6.4 km/h 92 % 0 mm
05:24 4.6 °C 3.4 °C 1018.5 hPa North 5.6 km/h 2.9 km/h 92 % 0 mm
05:29 4.7 °C 3.4 °C 1018.5 hPa WSW 3.7 km/h 1.9 km/h 91 % 0 mm
05:34 4.8 °C 3.4 °C 1018.5 hPa WSW 5.6 km/h 5.1 km/h 91 % 0 mm
05:39 4.9 °C 3.6 °C 1018.5 hPa North 5.6 km/h 4.7 km/h 91 % 0 mm
05:44 5.1 °C 3.7 °C 1018.5 hPa WSW 5.6 km/h 4.5 km/h 91 % 0 mm
05:49 5.2 °C 3.9 °C 1018.8 hPa WSW 6.4 km/h 4.2 km/h 91 % 0 mm
05:54 5.3 °C 3.8 °C 1018.8 hPa WSW 5.6 km/h 4.5 km/h 90 % 0 mm
05:59 5.4 °C 3.9 °C 1018.8 hPa WSW 5.6 km/h 3.1 km/h 90 % 0 mm
06:04 5.6 °C 4.1 °C 1018.8 hPa WSW 5.6 km/h 3.2 km/h 90 % 0 mm
06:09 5.8 °C 4.1 °C 1018.8 hPa WSW 6.4 km/h 5.6 km/h 89 % 0 mm
06:14 6 °C 4.3 °C 1018.8 hPa North 4.8 km/h 4.8 km/h 89 % 0 mm
06:19 6.2 °C 4.3 °C 1018.8 hPa WSW 5.6 km/h 3.2 km/h 88 % 0 mm
06:24 6.3 °C 4.4 °C 1018.8 hPa WSW 5.6 km/h 4.2 km/h 88 % 0 mm
06:29 6.4 °C 4.4 °C 1018.8 hPa WSW 5.6 km/h 1.3 km/h 87 % 0 mm
06:34 6.5 °C 4.5 °C 1019.2 hPa WSW 5.6 km/h 4.3 km/h 87 % 0 mm
06:39 6.6 °C 4.4 °C 1019.2 hPa WSW 5.6 km/h 3.2 km/h 86 % 0 mm
06:44 6.7 °C 4.5 °C 1019.2 hPa WSW 5.6 km/h 1.9 km/h 86 % 0 mm
06:49 6.8 °C 4.4 °C 1019.2 hPa WSW 5.6 km/h 2.3 km/h 85 % 0 mm
06:54 6.8 °C 4.5 °C 1019.5 hPa WSW 5.6 km/h 3.4 km/h 85 % 0 mm
06:59 6.9 °C 4.4 °C 1019.5 hPa WSW 5.6 km/h 2.6 km/h 84 % 0 mm
07:04 7 °C 4.5 °C 1019.5 hPa WSW 9.7 km/h 6.6 km/h 84 % 0 mm
07:09 7.1 °C 4.6 °C 1019.5 hPa North 6.4 km/h 4.3 km/h 84 % 0 mm
07:14 7.1 °C 4.6 °C 1019.5 hPa WSW 5.6 km/h 4.5 km/h 84 % 0 mm
07:19 7.1 °C 4.6 °C 1019.5 hPa WSW 3.7 km/h 1.8 km/h 84 % 0 mm
07:24 7.1 °C 4.6 °C 1019.5 hPa WSW 3.7 km/h 3.5 km/h 84 % 0 mm
07:29 7.1 °C 4.6 °C 1019.5 hPa WSW 1.9 km/h 0.8 km/h 84 % 0 mm
07:34 7.1 °C 4.6 °C 1019.5 hPa WSW 3.7 km/h 0.5 km/h 84 % 0 mm
07:39 7.1 °C 4.6 °C 1019.5 hPa WSW 5.6 km/h 1.3 km/h 84 % 0 mm
07:44 7.1 °C 4.8 °C 1019.9 hPa WSW 5.6 km/h 3.7 km/h 85 % 0 mm
07:49 7.2 °C 4.8 °C 1019.9 hPa WSW 7.4 km/h 6 km/h 85 % 0 mm
07:54 7.3 °C 4.8 °C 1019.5 hPa WSW 5.6 km/h 0.8 km/h 84 % 0 mm
07:59 7.3 °C 4.8 °C 1019.9 hPa North 6.4 km/h 4.5 km/h 84 % 0 mm
08:04 7.4 °C 4.9 °C 1019.9 hPa WSW 11.3 km/h 5.8 km/h 84 % 0 mm
08:09 7.6 °C 5.1 °C 1019.9 hPa WSW 11.1 km/h 8 km/h 84 % 0 mm
08:14 7.8 °C 5.1 °C 1019.9 hPa WSW 11.1 km/h 7.1 km/h 83 % 0 mm
08:19 7.9 °C 5.2 °C 1019.9 hPa WSW 13 km/h 7.1 km/h 83 % 0 mm
08:24 8 °C 5.3 °C 1019.9 hPa WSW 11.1 km/h 6 km/h 83 % 0 mm
08:29 8.1 °C 5.3 °C 1019.9 hPa West 11.1 km/h 6.9 km/h 83 % 0 mm
08:34 8.1 °C 5.4 °C 1020.2 hPa North 11.1 km/h 7.9 km/h 83 % 0 mm
08:39 8.1 °C 5.4 °C 1020.2 hPa West 14.8 km/h 10.5 km/h 83 % 0 mm
08:44 8.2 °C 5.4 °C 1020.2 hPa North 11.1 km/h 11.1 km/h 83 % 0 mm
08:49 8.2 °C 5.5 °C 1020.2 hPa WNW 9.3 km/h 8.7 km/h 83 % 0 mm
08:54 8.3 °C 5.6 °C 1020.2 hPa WNW 18.5 km/h 10.5 km/h 83 % 0 mm
08:59 8.3 °C 5.8 °C 1020.5 hPa North 20.4 km/h 11.7 km/h 84 % 0 mm
09:04 8.4 °C 5.8 °C 1020.5 hPa NW 20.9 km/h 9 km/h 84 % 0 mm
09:09 8.4 °C 5.9 °C 1020.5 hPa NNW 18.5 km/h 13.4 km/h 84 % 0 mm
09:14 8.4 °C 5.9 °C 1020.5 hPa North 9.3 km/h 6.6 km/h 84 % 0 mm
09:19 8.4 °C 5.9 °C 1020.5 hPa NNW 13 km/h 9.3 km/h 84 % 0 mm
09:24 8.5 °C 5.9 °C 1020.5 hPa NNW 14.8 km/h 10 km/h 84 % 0 mm
09:29 8.6 °C 6 °C 1020.5 hPa NNW 11.3 km/h 6.1 km/h 84 % 0 mm
09:34 8.6 °C 6 °C 1020.5 hPa NNW 13 km/h 9.8 km/h 84 % 0 mm
09:39 8.7 °C 6.1 °C 1020.5 hPa North 16.7 km/h 9.7 km/h 84 % 0 mm
09:44 8.7 °C 6 °C 1020.5 hPa North 14.5 km/h 9.8 km/h 83 % 0 mm
09:49 8.8 °C 5.9 °C 1020.5 hPa NNW 18.5 km/h 11.3 km/h 82 % 0 mm
09:54 8.8 °C 5.7 °C 1020.5 hPa North 18.5 km/h 10.9 km/h 81 % 0 mm
09:59 8.9 °C 5.8 °C 1020.5 hPa NNW 14.8 km/h 10.5 km/h 81 % 0 mm
10:04 9 °C 5.7 °C 1020.5 hPa NW 18.5 km/h 15.4 km/h 80 % 0 mm
10:09 9.1 °C 5.7 °C 1020.5 hPa North 16.7 km/h 13.7 km/h 79 % 0 mm
10:14 9.2 °C 5.6 °C 1020.5 hPa North 14.8 km/h 9 km/h 78 % 0 mm
10:19 9.3 °C 5.4 °C 1020.5 hPa NNW 20.4 km/h 12.2 km/h 77 % 0 mm
10:24 9.4 °C 5.4 °C 1020.5 hPa North 16.1 km/h 9.5 km/h 76 % 0 mm
10:29 9.5 °C 5.5 °C 1020.5 hPa North 20.4 km/h 12.4 km/h 76 % 0 mm
10:34 9.6 °C 5.4 °C 1020.2 hPa North 16.7 km/h 12.2 km/h 75 % 0 mm
10:39 9.7 °C 5.7 °C 1020.2 hPa NNW 14.8 km/h 9.7 km/h 76 % 0 mm
10:44 9.8 °C 5.4 °C 1020.2 hPa North 14.8 km/h 7.1 km/h 74 % 0 mm
10:49 9.9 °C 5.7 °C 1020.2 hPa North 20.4 km/h 9.3 km/h 75 % 0 mm
10:54 9.9 °C 5.4 °C 1020.2 hPa NNW 31.5 km/h 17.2 km/h 74 % 0 mm
10:59 9.8 °C 5.6 °C 1020.2 hPa North 24.1 km/h 16.9 km/h 75 % 0 mm
11:04 9.8 °C 5.7 °C 1020.2 hPa North 19.3 km/h 15.4 km/h 76 % 0 mm
11:09 9.7 °C 5.8 °C 1020.2 hPa North 24.1 km/h 17.5 km/h 77 % 0 mm
11:14 9.7 °C 5.8 °C 1020.2 hPa NNW 20.4 km/h 13 km/h 77 % 0 mm
11:19 9.7 °C 5.9 °C 1019.9 hPa North 22.2 km/h 10.1 km/h 77 % 0 mm
11:24 9.8 °C 5.9 °C 1019.9 hPa North 22.2 km/h 14 km/h 77 % 0 mm
11:29 9.8 °C 6 °C 1019.9 hPa North 18.5 km/h 17.1 km/h 77 % 0 mm
11:34 9.8 °C 5.8 °C 1019.9 hPa North 22.2 km/h 13.8 km/h 76 % 0 mm
11:39 9.8 °C 5.6 °C 1019.9 hPa North 29.6 km/h 18.3 km/h 75 % 0 mm
11:44 9.8 °C 5.6 °C 1019.9 hPa NNW 20.4 km/h 15.6 km/h 75 % 0 mm
11:49 9.8 °C 5.6 °C 1019.9 hPa North 25.7 km/h 15.1 km/h 75 % 0 mm
11:54 9.7 °C 5.1 °C 1019.9 hPa NNW 27.8 km/h 16.3 km/h 73 % 0 mm
11:59 9.7 °C 5.1 °C 1019.5 hPa North 20.4 km/h 11.7 km/h 73 % 0 mm
12:04 9.8 °C 4.9 °C 1019.5 hPa NNW 25.9 km/h 12.9 km/h 72 % 0 mm
12:09 9.8 °C 5.2 °C 1019.5 hPa North 22.5 km/h 12.9 km/h 73 % 0 mm
12:14 9.8 °C 4.6 °C 1019.5 hPa North 22.2 km/h 13.2 km/h 70 % 0 mm
12:19 9.9 °C 4.7 °C 1019.2 hPa North 25.9 km/h 19.8 km/h 70 % 0 mm
12:24 10.1 °C 4.7 °C 1019.2 hPa NW 18.5 km/h 10 km/h 69 % 0 mm
12:29 10.2 °C 4.6 °C 1019.2 hPa North 29.6 km/h 23 km/h 68 % 0 mm
12:34 10.2 °C 4.6 °C 1019.2 hPa North 18.5 km/h 13 km/h 68 % 0 mm
12:39 10.4 °C 4.5 °C 1018.8 hPa NNW 25.9 km/h 19.6 km/h 67 % 0 mm
12:44 10.4 °C 4.6 °C 1018.8 hPa NW 27.8 km/h 17.1 km/h 67 % 0 mm
12:49 10.4 °C 4.3 °C 1018.8 hPa NW 25.7 km/h 20.4 km/h 66 % 0 mm
12:54 10.4 °C 4.5 °C 1018.8 hPa NNW 35.2 km/h 13.7 km/h 67 % 0 mm
12:59 10.6 °C 4.7 °C 1018.5 hPa NNW 18.5 km/h 10.8 km/h 67 % 0 mm
13:04 10.7 °C 4.6 °C 1018.5 hPa North 27.8 km/h 17.1 km/h 66 % 0 mm
13:09 10.7 °C 4.6 °C 1018.5 hPa NNW 24.1 km/h 17.4 km/h 66 % 0 mm
13:14 10.8 °C 4.7 °C 1018.2 hPa North 29.6 km/h 18.8 km/h 66 % 0 mm
13:19 10.7 °C 4.8 °C 1018.2 hPa NNW 31.5 km/h 14.8 km/h 67 % 0 mm
13:24 10.7 °C 5.1 °C 1018.2 hPa NNW 20.4 km/h 18.3 km/h 68 % 0 mm
13:29 10.7 °C 5 °C 1018.2 hPa North 18.5 km/h 14 km/h 68 % 0 mm
13:34 10.7 °C 5.2 °C 1017.8 hPa NNW 16.1 km/h 16.6 km/h 69 % 0 mm
13:39 10.8 °C 5.3 °C 1017.8 hPa North 25.9 km/h 12.2 km/h 69 % 0 mm
13:44 10.8 °C 5.1 °C 1017.5 hPa North 31.5 km/h 18.2 km/h 68 % 0 mm
13:49 10.6 °C 5.4 °C 1017.5 hPa North 31.5 km/h 24.5 km/h 70 % 0 mm
13:54 10.5 °C 5.4 °C 1017.5 hPa NNE 31.5 km/h 18.5 km/h 71 % 0 mm
13:59 10.6 °C 5.6 °C 1017.5 hPa North 29.6 km/h 17.1 km/h 71 % 0 mm
14:04 10.9 °C 5.6 °C 1017.2 hPa NNE 29.6 km/h 17.4 km/h 70 % 0 mm
14:09 11.2 °C 5.7 °C 1017.2 hPa North 22.2 km/h 15.8 km/h 69 % 0 mm
14:14 11.2 °C 5.6 °C 1017.2 hPa North 31.5 km/h 21.6 km/h 68 % 0 mm
14:19 11.2 °C 5.7 °C 1017.2 hPa North 27.8 km/h 16.3 km/h 69 % 0 mm
14:24 11.4 °C 5.7 °C 1017.2 hPa NNW 31.5 km/h 18.2 km/h 68 % 0 mm
14:29 11.3 °C 5.6 °C 1016.8 hPa North 31.5 km/h 22.9 km/h 68 % 0 mm
14:34 11.3 °C 5.6 °C 1016.8 hPa NNE 33.3 km/h 20 km/h 68 % 0 mm
14:39 11.3 °C 5.6 °C 1016.5 hPa NNW 29.6 km/h 20.1 km/h 68 % 0 mm
14:44 11.7 °C 6.2 °C 1016.5 hPa North 27.8 km/h 20 km/h 69 % 0 mm
14:49 11.7 °C 6.2 °C 1016.5 hPa North 25.9 km/h 18.7 km/h 69 % 0 mm
14:54 11.4 °C 6.2 °C 1016.5 hPa North 31.5 km/h 21.2 km/h 70 % 0 mm
14:59 11.3 °C 6.4 °C 1016.5 hPa North 18.5 km/h 12.4 km/h 72 % 0 mm
15:04 11.3 °C 6.2 °C 1016.5 hPa NNE 27.8 km/h 15.6 km/h 71 % 0 mm
15:09 11.3 °C 6.3 °C 1016.5 hPa North 25.9 km/h 16.4 km/h 71 % 0 mm
15:14 11.3 °C 6.4 °C 1016.5 hPa NNW 20.4 km/h 10.6 km/h 72 % 0 mm
15:19 11.3 °C 6.4 °C 1016.5 hPa North 22.2 km/h 10.6 km/h 72 % 0 mm
15:24 11.4 °C 6.4 °C 1016.5 hPa North 27.8 km/h 19.3 km/h 71 % 0 mm
15:29 11.4 °C 6.3 °C 1016.5 hPa North 31.5 km/h 20.4 km/h 71 % 0 mm
15:34 11.3 °C 6.4 °C 1016.5 hPa NNE 25.7 km/h 18.8 km/h 72 % 0 mm
15:39 11.2 °C 6.3 °C 1016.1 hPa North 29.6 km/h 10.5 km/h 72 % 0 mm
15:44 11.1 °C 6.4 °C 1016.1 hPa NNE 29.6 km/h 14.3 km/h 73 % 0 mm
15:49 11.2 °C 6.6 °C 1016.1 hPa North 25.9 km/h 18.3 km/h 73 % 0 mm
15:54 11.4 °C 6.8 °C 1016.1 hPa North 20.4 km/h 13.7 km/h 73 % 0 mm
15:59 11.4 °C 6.7 °C 1015.8 hPa NNE 24.1 km/h 10 km/h 73 % 0 mm
16:04 11.4 °C 6.8 °C 1015.8 hPa North 35.2 km/h 17.9 km/h 73 % 0 mm
16:09 11.4 °C 6.6 °C 1015.8 hPa North 31.5 km/h 20.8 km/h 72 % 0 mm
16:14 11.4 °C 6.6 °C 1015.8 hPa NNE 33.3 km/h 18.8 km/h 72 % 0 mm
16:19 11.3 °C 6.4 °C 1015.8 hPa NNE 32.2 km/h 16.3 km/h 72 % 0 mm
16:24 11.2 °C 6.3 °C 1015.8 hPa NNW 33.3 km/h 15.3 km/h 72 % 0 mm
16:29 11.2 °C 6.5 °C 1015.5 hPa North 24.1 km/h 14.3 km/h 73 % 0 mm
16:34 11.3 °C 6.6 °C 1015.8 hPa North 31.5 km/h 20.8 km/h 73 % 0 mm
16:39 11.3 °C 6.6 °C 1015.8 hPa North 18.5 km/h 15.8 km/h 73 % 0 mm
16:44 11.3 °C 6.7 °C 1015.8 hPa North 20.9 km/h 12.9 km/h 73 % 0 mm
16:49 11.4 °C 6.6 °C 1015.8 hPa North 27.8 km/h 21.9 km/h 72 % 0 mm
16:54 11.4 °C 6.6 °C 1015.8 hPa North 18.5 km/h 12.7 km/h 72 % 0 mm
16:59 11.4 °C 6.6 °C 1015.8 hPa North 27.8 km/h 19.2 km/h 72 % 0 mm
17:04 11.4 °C 6.3 °C 1015.5 hPa NNE 18.5 km/h 16.6 km/h 71 % 0 mm
17:09 11.3 °C 6.4 °C 1015.5 hPa NNE 18.5 km/h 12.1 km/h 72 % 0 mm
17:14 11.2 °C 6.3 °C 1015.8 hPa North 22.5 km/h 14.2 km/h 72 % 0 mm
17:19 11.1 °C 6.2 °C 1015.8 hPa NNE 29.6 km/h 21.9 km/h 72 % 0 mm
17:24 10.9 °C 6.1 °C 1015.8 hPa NNE 22.2 km/h 9.3 km/h 72 % 0 mm
17:29 10.8 °C 6.2 °C 1015.8 hPa NNE 20.4 km/h 15.3 km/h 73 % 0 mm
17:34 10.7 °C 6 °C 1015.8 hPa NNE 19.3 km/h 13.5 km/h 73 % 0 mm
17:39 10.6 °C 6.2 °C 1015.5 hPa NNE 24.1 km/h 11.9 km/h 74 % 0 mm
17:44 10.5 °C 6.1 °C 1015.5 hPa NNE 24.1 km/h 9.3 km/h 74 % 0 mm
17:49 10.4 °C 6 °C 1015.8 hPa NNE 22.2 km/h 17.5 km/h 74 % 0 mm
17:54 10.4 °C 6.2 °C 1015.5 hPa NNE 22.2 km/h 15 km/h 75 % 0 mm
17:59 10.3 °C 6.1 °C 1015.5 hPa NNE 18.5 km/h 10.6 km/h 75 % 0 mm
18:04 10.2 °C 6 °C 1015.5 hPa NNE 25.9 km/h 15.8 km/h 75 % 0 mm
18:09 10.2 °C 6 °C 1015.5 hPa NNE 22.2 km/h 15.1 km/h 75 % 0 mm
18:14 10.2 °C 5.9 °C 1015.5 hPa NNE 22.2 km/h 13.4 km/h 75 % 0 mm
18:19 10.1 °C 6 °C 1015.5 hPa NNE 19.3 km/h 16.6 km/h 76 % 0 mm
18:24 10 °C 5.9 °C 1015.5 hPa NNE 20.4 km/h 13.7 km/h 76 % 0 mm
18:29 9.9 °C 5.9 °C 1015.5 hPa North 25.9 km/h 16.6 km/h 76 % 0 mm
18:34 9.9 °C 6.1 °C 1015.5 hPa NNE 22.5 km/h 17.9 km/h 77 % 0 mm
18:39 9.8 °C 6 °C 1015.5 hPa NNE 31.5 km/h 14.8 km/h 77 % 0 mm
18:44 9.8 °C 5.9 °C 1015.5 hPa NNE 24.1 km/h 12.6 km/h 77 % 0 mm
18:49 9.7 °C 6 °C 1015.5 hPa NE 18.5 km/h 14.3 km/h 78 % 0 mm
18:54 9.6 °C 5.9 °C 1015.5 hPa NNE 24.1 km/h 17.1 km/h 78 % 0 mm
18:59 9.6 °C 5.9 °C 1015.5 hPa NNE 35.2 km/h 21.1 km/h 78 % 0 mm
19:04 9.6 °C 5.9 °C 1015.5 hPa NNE 27.8 km/h 21.6 km/h 78 % 0 mm
19:09 9.6 °C 5.9 °C 1015.5 hPa North 24.1 km/h 18.3 km/h 78 % 0 mm
19:14 9.6 °C 5.9 °C 1015.5 hPa NNE 18.5 km/h 15.4 km/h 78 % 0 mm
19:19 9.7 °C 6 °C 1015.8 hPa NNE 22.2 km/h 14.2 km/h 78 % 0 mm
19:24 9.7 °C 6 °C 1015.8 hPa NNE 22.2 km/h 14.6 km/h 78 % 0 mm
19:29 9.7 °C 6.1 °C 1015.8 hPa NNE 18.5 km/h 14.5 km/h 78 % 0 mm
19:34 9.8 °C 6.1 °C 1015.8 hPa NNE 18.5 km/h 15 km/h 78 % 0 mm
19:39 9.8 °C 6 °C 1015.8 hPa NNE 14.8 km/h 13.8 km/h 77 % 0 mm
19:44 9.8 °C 6 °C 1015.5 hPa NNE 14.8 km/h 14.6 km/h 77 % 0 mm
19:49 9.9 °C 6.1 °C 1015.5 hPa NNE 19.3 km/h 11.3 km/h 77 % 0 mm
19:54 10.1 °C 6 °C 1015.5 hPa North 22.5 km/h 15.6 km/h 76 % 0 mm
19:59 10.3 °C 6.1 °C 1015.8 hPa NNE 29.6 km/h 22.7 km/h 75 % 0 mm
20:04 10.4 °C 6.2 °C 1015.8 hPa NNE 22.5 km/h 19.5 km/h 75 % 0 mm
20:09 10.4 °C 6 °C 1015.8 hPa NNE 31.5 km/h 16.7 km/h 74 % 0 mm
20:14 10.5 °C 6.1 °C 1015.8 hPa NE 32.2 km/h 23.2 km/h 74 % 0 mm
20:19 10.5 °C 6.1 °C 1015.8 hPa NNE 31.5 km/h 13.8 km/h 74 % 0 mm
20:24 10.4 °C 6 °C 1015.8 hPa NNE 27.8 km/h 20.6 km/h 74 % 0 mm
20:29 10.4 °C 6 °C 1015.8 hPa North 31.5 km/h 18.2 km/h 74 % 0 mm
20:34 10.4 °C 5.9 °C 1015.8 hPa NNE 31.5 km/h 24.1 km/h 74 % 0 mm
20:39 10.3 °C 5.9 °C 1015.8 hPa NE 25.9 km/h 17.9 km/h 74 % 0 mm
20:44 10.3 °C 5.9 °C 1015.8 hPa NNE 22.2 km/h 18.2 km/h 74 % 0 mm
20:49 10.3 °C 5.9 °C 1016.1 hPa North 29.6 km/h 21.6 km/h 74 % 0 mm
20:54 10.3 °C 5.9 °C 1015.8 hPa NNE 29.6 km/h 20.6 km/h 74 % 0 mm
20:59 10.4 °C 5.9 °C 1015.8 hPa NNE 31.5 km/h 14.5 km/h 74 % 0 mm
21:04 10.4 °C 5.8 °C 1015.8 hPa NNE 27.8 km/h 20.8 km/h 73 % 0 mm
21:09 10.4 °C 5.8 °C 1015.8 hPa NNE 24.1 km/h 12.4 km/h 73 % 0 mm
21:14 10.4 °C 5.8 °C 1016.1 hPa NNE 31.5 km/h 24.1 km/h 73 % 0 mm
21:19 10.4 °C 5.8 °C 1016.1 hPa NE 24.1 km/h 17.5 km/h 73 % 0 mm
21:24 10.4 °C 5.8 °C 1015.8 hPa NNE 31.5 km/h 17.7 km/h 73 % 0 mm
21:29 10.4 °C 5.8 °C 1015.8 hPa NNE 24.1 km/h 13.7 km/h 73 % 0 mm
21:34 10.4 °C 5.8 °C 1015.8 hPa NNE 22.2 km/h 16.7 km/h 73 % 0 mm
21:39 10.4 °C 5.8 °C 1015.8 hPa NNE 22.2 km/h 11.9 km/h 73 % 0 mm
21:44 10.4 °C 5.8 °C 1015.5 hPa NNE 27.8 km/h 12.6 km/h 73 % 0 mm
21:49 10.5 °C 5.9 °C 1015.5 hPa NNE 25.9 km/h 16.7 km/h 73 % 0 mm
21:54 10.6 °C 5.9 °C 1015.5 hPa NNE 20.4 km/h 13.4 km/h 73 % 0 mm
21:59 10.6 °C 5.7 °C 1015.5 hPa NNE 31.5 km/h 19.3 km/h 72 % 0 mm
22:04 10.7 °C 5.8 °C 1015.5 hPa NNE 24.1 km/h 18.8 km/h 72 % 0 mm
22:09 10.7 °C 5.8 °C 1015.1 hPa North 27.8 km/h 18.7 km/h 72 % 0 mm
22:14 10.7 °C 5.8 °C 1015.1 hPa NNE 27.8 km/h 23.3 km/h 72 % 0 mm
22:19 10.6 °C 5.8 °C 1015.1 hPa NNE 31.5 km/h 21.7 km/h 72 % 0 mm
22:24 10.6 °C 5.7 °C 1015.1 hPa NNE 27.8 km/h 14 km/h 72 % 0 mm
22:29 10.6 °C 5.7 °C 1014.8 hPa NNE 25.7 km/h 18.7 km/h 72 % 0 mm
22:34 10.6 °C 5.7 °C 1014.8 hPa NNE 29.6 km/h 12.4 km/h 72 % 0 mm
22:39 10.6 °C 5.7 °C 1014.4 hPa NNE 31.5 km/h 13.2 km/h 72 % 0 mm
22:44 10.6 °C 5.6 °C 1014.4 hPa NNE 24.1 km/h 17.2 km/h 71 % 0 mm
22:49 10.7 °C 5.6 °C 1014.4 hPa NNE 20.4 km/h 15.1 km/h 71 % 0 mm
22:54 10.7 °C 5.4 °C 1014.1 hPa NNE 25.7 km/h 20.1 km/h 70 % 0 mm
22:59 10.9 °C 5.6 °C 1014.1 hPa North 33.3 km/h 19.5 km/h 70 % 0 mm
23:04 11 °C 5.5 °C 1014.1 hPa North 31.5 km/h 23.7 km/h 69 % 0 mm
23:09 11.1 °C 5.6 °C 1014.1 hPa NE 42.6 km/h 26.1 km/h 69 % 0 mm
23:14 11.1 °C 5.6 °C 1014.1 hPa North 33.3 km/h 23.2 km/h 69 % 0 mm
23:19 11.2 °C 5.6 °C 1014.1 hPa NNE 37 km/h 25.4 km/h 68 % 0 mm
23:24 11.3 °C 5.6 °C 1014.1 hPa NNE 29.6 km/h 20.6 km/h 68 % 0 mm
23:29 11.3 °C 5.6 °C 1014.1 hPa North 40.7 km/h 19 km/h 68 % 0 mm
23:34 11.2 °C 5.5 °C 1014.4 hPa North 27.4 km/h 21.7 km/h 68 % 0 mm
23:39 11.2 °C 5.5 °C 1014.1 hPa NNE 32.2 km/h 18.2 km/h 68 % 0 mm
23:44 11.2 °C 5.5 °C 1014.1 hPa NNE 35.4 km/h 21.9 km/h 68 % 0 mm
23:49 11.1 °C 5.6 °C 1013.8 hPa North 24.1 km/h 19 km/h 69 % 0 mm
23:54 11 °C 5.5 °C 1013.8 hPa NNE 32.2 km/h 19.8 km/h 69 % 0 mm
23:59 11 °C 5.5 °C 1013.8 hPa North 24.1 km/h 18.3 km/h 69 % 0 mm
Ararat Weather
Compliments of Weather Underground - 2.25 mb
Click here to send mail.


ABOUT

Live weather data from Ararat, Victoria, Australia, 3377
Data uploaded from Cumulus every 5 minutes to Weather Underground.
This site then downloads the raw data for formatting and display.
Metric and imperial data can be displayed. Graphs and historical data available.
Includes Sun and Moon times and rain image live from BOM.

Check out Ararat Weather on Facebook, Twitter and Google +

Help support ongoing costs by checking out the ads





Follow @AraratWeather